ウダーチヌイ の空港の天気 - METARとTAF

Polyarny ( UERP / PYJ ) - ロシア ウダーチヌイ
飛行場実況気象(Metar)
観測時間10/22 21:00 YAKT (10/22 12:00 UTC)
風向・風速南 3m/s 瞬間風速8m/s
視程9000m
天気現象弱いしゅう雪
全天の8割程度の雲 雲底高度 180m
全天の8割程度の雲 雲底高度 430m
全天を覆う雲 雲底高度 3050m
気温-11℃
湿度92%
気圧1001hPa
METARUERP 221200Z 17003G08MPS 9000 -SHSN BKN006 BKN014CB OVC100 M11/M12 Q1001 R35/850245 NOSIG RMK QBB190 QFE707
過去の天気等 Google飛行場航空写真 Wunderground天気予報

過去48時間のMETAR

飛行場予報(TAF)
発表時間: 10/22 20:00 YAKT (10/22 11:00 UTC)
予報対象時間: 22日21時 YAKT ~ 23日21時 YAKT
風向・風速南南東 4m/s 瞬間風速 9m/s
視程3000m
天気現象弱いしゅう雪 低い地吹雪
全天の8割程度の雲 雲底高度 210m
全天の8割程度の積乱雲 雲底高度 460m
全天を覆う雲 雲底高度 3050m
22日21時 YAKT ~ 23日9時 YAKT に一時的に
視程1000m
天気現象しゅう雪 低い地吹雪
全天を覆う雲 鉛直視程 120m
TAF UERP 221100Z 2212/2312 16004G09MPS 3000 -SHSN DRSN BKN007 BKN015CB OVC100
TEMPO 2212/2224 1000 SHSN DRSN VV004